Latest Weather Observations for Hogan Island

IDV60801

Issued at 3:52 pm EST Saturday 25 May 2024 (issued every 10 minutes, with the page automatically refreshed every 10 minutes)

About weather observations | Map of weather stations | Latest weather observations for VIC | Other Formats
Station Details ID: 200838 Name: HOGAN ISLAND Lat: -39.22 Lon: 146.98 Height: 116.0 m
Data from the previous 72 hours. | See also: Recent months at Hogan Island
Date/Time
EST
Temp
°C
App
Temp
°C
Dew
Point
°C
Rel
Hum
%
Delta-T
°C
Wind Press
QNH
hPa
Press
MSL
hPa
Rain since
9am
mm
Dir  Spd
km/h
Gust
km/h
Spd
kts
Gust
kts
25/03:30pm 14.0 8.2 12.6 91 0.8 E 35 41 19 22 1025.8 1025.8 0.2
25/03:00pm 14.3 8.0 12.3 88 1.1 E 37 43 20 23 1025.8 1025.8 0.2
25/02:30pm 14.2 8.2 12.2 88 1.1 E 35 43 19 23 1026.0 1026.0 0.2
25/02:00pm 14.0 7.3 12.2 89 1.0 E 39 44 21 24 1026.0 1026.0 0.2
25/01:30pm 14.5 7.2 12.9 90 0.9 E 43 48 23 26 1026.2 1026.2 0.2
25/01:00pm 14.5 7.5 12.5 88 1.1 E 41 46 22 25 1026.5 1026.5 0.2
25/12:30pm 14.9 7.9 13.8 93 0.6 E 43 48 23 26 1026.7 1026.7 0.2
25/12:00pm 13.9 6.0 12.6 92 0.7 E 46 52 25 28 1027.0 1027.0 0.2
25/11:30am 13.9 6.0 12.8 93 0.6 E 46 54 25 29 1027.6 1027.6 0.2
25/11:00am 13.7 5.1 12.8 94 0.5 E 50 57 27 31 1027.8 1027.8 0.2
25/10:30am 13.7 5.6 13.1 96 0.3 E 48 54 26 29 1027.9 1027.9 0.2
25/10:00am 13.1 4.8 12.5 96 0.3 E 48 56 26 30 1027.8 1027.8 0.0
25/09:30am 12.9 3.5 12.6 98 0.2 E 54 61 29 33 1027.8 1027.8 0.0
25/09:00am 12.8 4.5 12.5 98 0.2 E 48 56 26 30 1027.8 1027.8 3.8
25/08:30am 12.4 4.9 12.1 98 0.2 ESE 43 52 23 28 1027.8 1027.8 3.0
25/08:00am 12.3 3.7 11.8 97 0.3 ESE 48 56 26 30 1027.7 1027.7 1.0
25/07:30am 12.2 4.0 11.7 97 0.3 ESE 46 54 25 29 1027.5 1027.5 0.6
25/07:00am 12.1 3.9 11.6 97 0.3 ESE 46 56 25 30 1027.5 1027.5 0.6
25/06:30am 12.1 4.2 11.5 96 0.3 ESE 44 52 24 28 1027.5 1027.5 0.2
25/06:00am 11.9 4.1 11.3 96 0.3 E 43 48 23 26 1027.4 1027.4 0.2
25/05:30am 12.1 3.1 11.5 96 0.3 ESE 50 57 27 31 1027.1 1027.1 0.2
25/05:00am 12.2 4.1 10.9 92 0.7 ESE 44 52 24 28 1027.2 1027.2 0.0
25/04:30am 12.0 4.0 10.6 91 0.7 ESE 43 50 23 27 1027.3 1027.3 0.0
25/04:00am 12.2 4.0 10.4 89 0.9 ESE 44 52 24 28 1027.5 1027.5 0.0
25/03:30am 12.6 4.6 10.3 86 1.2 ESE 43 52 23 28 1027.7 1027.7 0.0
25/03:00am 12.7 4.4 10.2 85 1.3 E 44 52 24 28 1027.8 1027.8 0.0
25/02:30am 13.0 5.0 10.4 84 1.4 E 43 50 23 27 1028.0 1028.0 0.0
25/02:00am 13.1 5.8 10.1 82 1.5 E 39 50 21 27 1028.1 1028.1 0.0
25/01:30am 13.1 5.0 9.9 81 1.7 ESE 43 50 23 27 1028.0 1028.0 0.0
25/01:00am 13.0 4.7 9.4 79 1.8 E 43 48 23 26 1028.1 1028.1 0.0
25/12:30am 13.0 4.7 9.4 79 1.8 E 43 48 23 26 1028.4 1028.3 0.0
25/12:00am 12.9 5.0 9.4 79 1.8 E 41 46 22 25 1028.5 1028.4 0.0
 
Date/Time
EST
Temp
°C
App
Temp
°C
Dew
Point
°C
Rel
Hum
%
Delta-T
°C
Wind Press
QNH
hPa
Press
MSL
hPa
Rain since
9am
mm
Dir  Spd
km/h
Gust
km/h
Spd
kts
Gust
kts
24/11:30pm 12.7 4.6 9.9 83 1.4 ESE 43 50 23 27 1028.5 1028.4 0.0
24/11:00pm 12.2 3.7 9.2 82 1.5 E 44 52 24 28 1028.7 1028.6 0.0
24/10:30pm 12.3 3.5 9.7 84 1.3 ESE 46 52 25 28 1028.7 1028.6 0.0
24/10:00pm 12.3 3.5 9.7 84 1.3 ESE 46 54 25 29 1028.8 1028.8 0.0
24/09:30pm 12.6 4.3 10.1 85 1.3 ESE 44 52 24 28 1028.6 1028.5 0.0
24/09:00pm 12.6 4.3 10.0 84 1.3 ESE 44 50 24 27 1028.7 1028.6 0.0
24/08:30pm 12.9 4.5 9.7 81 1.6 E 44 52 24 28 1028.6 1028.5 0.0
24/08:00pm 12.5 4.1 9.5 82 1.5 E 44 50 24 27 1028.5 1028.4 0.0
24/07:30pm 12.5 3.8 9.9 84 1.3 E 46 52 25 28 1028.4 1028.3 0.0
24/07:00pm 12.8 4.4 9.8 82 1.5 E 44 50 24 27 1028.5 1028.4 0.0
24/06:30pm 12.4 4.0 9.8 84 1.3 E 44 50 24 27 1028.2 1028.2 0.0
24/06:00pm 12.5 4.2 10.2 86 1.2 ESE 44 52 24 28 1028.0 1028.0 0.0
24/05:30pm 12.4 4.4 10.5 88 1.0 E 43 50 23 27 1027.9 1027.9 0.0
24/05:00pm 12.4 4.3 10.6 89 0.9 E 44 50 24 27 1027.5 1027.5 0.0
24/04:30pm 12.6 4.1 10.5 87 1.1 E 46 52 25 28 1027.4 1027.4 0.0
24/04:00pm 12.7 5.1 10.4 86 1.2 ESE 41 48 22 26 1027.3 1027.3 0.0
24/03:30pm 13.1 5.5 10.5 84 1.4 ESE 41 48 22 26 1027.3 1027.3 0.0
24/03:00pm 13.3 5.4 10.8 85 1.3 E 43 46 23 25 1027.3 1027.3 0.0
24/02:30pm 14.1 8.2 11.1 82 1.6 E 33 41 18 22 1027.3 1027.3 0.0
24/02:00pm 14.3 8.6 11.3 82 1.6 E 32 35 17 19 1027.5 1027.5 0.0
24/01:30pm 14.3 8.8 10.7 79 1.9 E 30 33 16 18 1027.6 1027.6 0.0
24/01:00pm 15.1 9.9 11.7 80 1.8 ESE 30 33 16 18 1027.7 1027.7 0.0
24/12:30pm 14.3 8.6 11.3 82 1.6 ESE 32 35 17 19 1027.6 1027.6 0.0
24/12:00pm 15.0 9.2 12.7 86 1.3 ESE 35 39 19 21 1027.6 1027.6 0.0
24/11:30am 14.4 8.9 12.6 89 1.0 E 33 37 18 20 1028.0 1028.0 0.0
24/11:00am 13.1 7.4 11.7 91 0.7 ESE 33 41 18 22 1028.0 1028.0 0.0
24/10:30am 13.2 7.5 11.8 91 0.8 ESE 33 39 18 21 1028.0 1028.0 0.0
24/10:00am 14.1 9.1 12.1 88 1.1 E 30 33 16 18 1027.9 1027.9 0.0
24/09:30am 12.8 6.9 11.0 89 0.9 E 33 39 18 21 1027.8 1027.8 0.0
24/09:00am 12.6 6.3 11.2 91 0.7 ESE 35 39 19 21 1027.8 1027.8 5.6
24/08:30am 12.3 6.0 11.0 92 0.7 ESE 35 41 19 22 1027.6 1027.6 5.6
24/08:00am 12.3 6.4 11.2 93 0.6 E 33 37 18 20 1027.3 1027.3 5.6
24/07:30am 11.8 7.1 10.7 93 0.6 E 26 32 14 17 1027.0 1027.0 5.6
24/07:00am 11.8 6.4 10.9 94 0.5 E 30 33 16 18 1026.7 1026.7 5.6
24/06:30am 11.7 5.4 11.1 96 0.3 ESE 35 41 19 22 1026.6 1026.6 5.6
24/06:00am 11.6 5.3 11.0 96 0.3 ESE 35 41 19 22 1026.5 1026.5 4.4
24/05:30am 12.1 8.4 11.5 96 0.3 ESE 22 32 12 17 1026.3 1026.3 2.2
24/05:00am 12.2 8.9 10.9 92 0.7 S 19 26 10 14 1026.2 1026.2 0.4
24/04:30am 12.1 6.9 10.2 88 1.0 W 28 37 15 20 1026.1 1026.1 0.4
24/04:00am 13.8 7.3 10.2 79 1.9 W 35 39 19 21 1026.1 1026.1 0.0
24/03:30am 13.8 7.7 9.8 77 2.1 W 32 35 17 19 1026.2 1026.2 0.0
24/03:00am 13.5 6.8 9.6 77 2.0 W 35 39 19 21 1026.2 1026.2 0.0
24/02:30am 13.3 7.5 9.4 77 2.0 W 30 35 16 19 1026.3 1026.3 0.0
24/02:00am 13.4 7.2 10.2 81 1.7 W 33 37 18 20 1026.3 1026.3 0.0
24/01:30am 13.5 7.3 10.1 80 1.8 WSW 33 39 18 21 1026.4 1026.4 0.0
24/01:00am 13.3 7.1 9.9 80 1.7 W 33 37 18 20 1026.3 1026.3 0.0
24/12:30am 13.4 7.2 10.2 81 1.7 W 33 41 18 22 1026.4 1026.4 0.0
24/12:00am 13.3 6.2 9.4 77 2.0 W 37 41 20 22 1026.3 1026.3 0.0
 
Date/Time
EST
Temp
°C
App
Temp
°C
Dew
Point
°C
Rel
Hum
%
Delta-T
°C
Wind Press
QNH
hPa
Press
MSL
hPa
Rain since
9am
mm
Dir  Spd
km/h
Gust
km/h
Spd
kts
Gust
kts
23/11:30pm 13.3 6.4 9.0 75 2.2 W 35 41 19 22 1026.2 1026.2 0.0
23/11:00pm 13.2 6.8 9.3 77 2.0 W 33 39 18 21 1026.3 1026.3 0.0
23/10:30pm 13.2 7.0 9.3 77 2.0 W 32 35 17 19 1026.4 1026.4 0.0
23/10:00pm 13.3 7.6 9.7 79 1.8 W 30 35 16 19 1026.5 1026.5 0.0
23/09:30pm 13.1 7.2 9.2 77 2.0 W 30 35 16 19 1026.5 1026.5 0.0
23/09:00pm 13.2 6.9 9.1 76 2.1 W 32 37 17 20 1026.3 1026.3 0.0
23/08:30pm 13.4 7.0 9.3 76 2.1 W 33 41 18 22 1026.3 1026.3 0.0
23/08:00pm 13.5 7.1 9.2 75 2.2 WSW 33 39 18 21 1026.3 1026.3 0.0
23/07:30pm 13.5 6.7 9.4 76 2.1 W 35 39 19 21 1026.3 1026.3 0.0
23/07:00pm 13.4 6.5 8.7 73 2.4 W 35 41 19 22 1026.5 1026.5 0.0
23/06:30pm 13.4 6.4 8.5 72 2.5 WSW 35 41 19 22 1026.5 1026.5 0.0
23/06:00pm 13.2 5.7 7.9 70 2.6 WSW 37 41 20 22 1026.2 1026.2 0.0
23/05:30pm 13.5 6.5 8.4 71 2.6 WSW 35 39 19 21 1026.1 1026.1 0.0
23/05:00pm 13.5 7.0 9.0 74 2.3 WSW 33 37 18 20 1026.1 1026.1 0.0
23/04:30pm 13.6 6.7 8.7 72 2.5 WSW 35 41 19 22 1025.9 1025.9 0.0
23/04:00pm 14.4 7.5 8.8 69 2.8 WSW 35 39 19 21 1025.9 1025.9 0.0
23/03:30pm 14.7 8.2 8.9 68 3.0 WSW 33 39 18 21 1025.7 1025.7 0.0
23/03:00pm 14.9 8.4 9.1 68 3.0 WSW 33 39 18 21 1025.6 1025.6 0.0
23/02:30pm 15.4 8.6 9.3 67 3.2 WSW 35 41 19 22 1025.5 1025.5 0.0
23/02:00pm 15.8 9.1 9.7 67 3.2 WSW 35 43 19 23 1025.8 1025.8 0.0
23/01:30pm 14.6 7.7 8.8 68 3.0 WSW 35 41 19 22 1025.9 1025.9 0.0
23/01:00pm 14.8 8.6 10.2 74 2.4 WSW 33 39 18 21 1026.1 1026.1 0.0
23/12:30pm 14.8 8.0 10.8 77 2.1 WSW 37 44 20 24 1026.3 1026.3 0.0
23/12:00pm 14.8 7.4 8.5 66 3.2 WSW 37 43 20 23 1026.4 1026.4 0.0
23/11:30am 14.6 8.2 9.4 71 2.7 W 33 37 18 20 1026.8 1026.8 0.0
23/11:00am 14.7 8.0 8.0 64 3.3 WSW 33 37 18 20 1027.0 1027.0 0.0
23/10:30am 14.6 7.2 6.7 59 3.9 W 35 39 19 21 1027.1 1027.1 0.0
23/10:00am 14.7 7.7 6.0 56 4.2 WSW 32 35 17 19 1027.0 1027.0 0.0
23/09:30am 14.4 7.5 6.3 58 3.9 WSW 32 39 17 21 1026.9 1026.9 0.0
23/09:00am 14.3 7.2 6.2 58 3.9 WSW 33 39 18 21 1026.9 1026.9 0.0
23/08:30am 13.5 5.3 4.6 55 4.1 WSW 37 46 20 25 1026.6 1026.6 0.0
23/08:00am 13.8 6.3 6.2 60 3.6 W 35 43 19 23 1026.6 1026.6 0.0
23/07:30am 13.6 6.0 5.7 59 3.7 WSW 35 44 19 24 1026.4 1026.4 0.0
23/07:00am 13.1 8.6 8.4 73 2.3 WSW 22 28 12 15 1026.4 1026.4 0.0
23/06:30am 13.2 8.0 8.9 75 2.2 SW 26 32 14 17 1026.2 1026.2 0.0
23/06:00am 13.6 7.9 8.4 71 2.6 WSW 28 33 15 18 1026.0 1026.0 0.0
23/05:30am 13.5 8.1 8.1 70 2.7 WSW 26 32 14 17 1025.9 1025.9 0.0
23/05:00am 13.4 8.1 8.3 71 2.5 WSW 26 32 14 17 1025.7 1025.7 0.0
23/04:30am 13.2 7.7 7.6 69 2.8 WSW 26 30 14 16 1025.7 1025.7 0.0
23/04:00am 13.0 8.2 8.9 76 2.1 WSW 24 30 13 16 1025.6 1025.6 0.0
23/03:30am 13.2 7.4 8.1 71 2.5 WSW 28 37 15 20 1025.7 1025.7 0.0
23/03:00am 12.7 8.1 8.0 73 2.3 WSW 22 35 12 19 1025.7 1025.7 0.0
23/02:30am 12.9 7.6 8.4 74 2.3 WSW 26 33 14 18 1025.8 1025.8 0.0
23/02:00am 13.2 7.8 7.9 70 2.6 WSW 26 35 14 19 1025.9 1025.9 0.0
23/01:30am 13.3 7.5 8.0 70 2.6 WSW 28 37 15 20 1025.7 1025.7 0.0
23/01:00am 13.5 6.9 7.7 68 2.9 WSW 32 37 17 20 1025.7 1025.7 0.0
23/12:30am 13.5 7.9 8.8 73 2.4 WSW 28 33 15 18 1025.7 1025.7 0.0
23/12:00am 13.3 8.5 8.8 74 2.3 WSW 24 28 13 15 1025.7 1025.7 0.0
 
Date/Time
EST
Temp
°C
App
Temp
°C
Dew
Point
°C
Rel
Hum
%
Delta-T
°C
Wind Press
QNH
hPa
Press
MSL
hPa
Rain since
9am
mm
Dir  Spd
km/h
Gust
km/h
Spd
kts
Gust
kts
22/11:30pm 12.8 8.0 8.9 77 2.0 SW 24 26 13 14 1025.7 1025.7 0.0
22/11:00pm 12.9 8.6 9.2 78 1.9 WSW 22 26 12 14 1025.8 1025.8 0.0
22/10:30pm 13.1 7.9 8.8 75 2.2 WSW 26 30 14 16 1025.9 1025.9 0.0
22/10:00pm 13.2 9.1 10.2 82 1.6 WSW 22 26 12 14 1026.2 1026.2 0.0
22/09:30pm 12.9 9.2 10.1 83 1.5 WSW 20 28 11 15 1026.2 1026.2 0.0
22/09:00pm 13.1 8.6 9.9 81 1.6 WSW 24 28 13 15 1026.2 1026.2 0.0
22/08:30pm 12.8 8.5 9.4 80 1.7 SW 22 26 12 14 1026.0 1026.0 0.0
22/08:00pm 12.9 8.5 9.0 77 2.0 SW 22 26 12 14 1026.1 1026.1 0.0
22/07:30pm 12.9 8.1 9.0 77 2.0 SW 24 28 13 15 1026.1 1026.1 0.0
22/07:00pm 12.8 8.9 9.4 80 1.7 SW 20 24 11 13 1026.0 1026.0 0.0
22/06:30pm 13.3 8.1 10.3 82 1.6 SW 28 32 15 17 1025.9 1025.9 0.0
22/06:00pm 13.3 8.2 10.7 84 1.4 SW 28 33 15 18 1025.7 1025.7 0.0
22/05:30pm 13.3 7.5 11.5 89 1.0 W 33 37 18 20 1025.4 1025.4 0.0
22/05:00pm 13.2 7.9 11.4 89 1.0 W 30 33 16 18 1025.3 1025.3 0.0
22/04:30pm 13.6 8.6 11.1 85 1.3 W 28 32 15 17 1025.2 1025.2 0.0
22/04:00pm 14.0 8.5 10.6 80 1.8 W 30 35 16 19 1025.3 1025.3 0.0

Other formats

Comma delimited format used in spreadsheet applications
http://www.bom.gov.au/fwo/IDV60801/IDV60801.94949.axf

JavaScript Object Notation format (JSON) in row-major order
http://www.bom.gov.au/fwo/IDV60801/IDV60801.94949.json

Data quality

Most of these data are generated automatically and are frequently updated. Quality checks on data are not normally performed. It is possible for incorrect values to appear. Refer to information at About Latest Weather Observations and please check the disclaimer before using these data.